sensor_id;sensor_type;location;lat;lon;timestamp;P1;durP1;ratioP1;P2;durP2;ratioP2
48795;SDS011;34607;48.520;-1.330;2023-03-26T07:35:20;5.55;;;1.50;;
48795;SDS011;34607;48.520;-1.330;2023-03-26T07:37:59;10.13;;;2.15;;
48795;SDS011;34607;48.520;-1.330;2023-03-26T07:40:55;8.77;;;1.40;;
48795;SDS011;34607;48.520;-1.330;2023-03-26T07:44:13;5.88;;;1.77;;
48795;SDS011;34607;48.520;-1.330;2023-03-26T07:47:35;5.75;;;1.58;;
48795;SDS011;34607;48.520;-1.330;2023-03-26T07:50:23;9.10;;;1.75;;
48795;SDS011;34607;48.520;-1.330;2023-03-26T07:53:23;9.25;;;2.70;;
48795;SDS011;34607;48.520;-1.330;2023-03-26T07:56:18;9.68;;;2.22;;
48795;SDS011;34607;48.520;-1.330;2023-03-26T07:58:53;4.07;;;1.40;;
48795;SDS011;34607;48.520;-1.330;2023-03-26T08:05:48;8.48;;;1.80;;
48795;SDS011;34607;48.520;-1.330;2023-03-26T08:08:27;9.50;;;1.70;;
48795;SDS011;34607;48.520;-1.330;2023-03-26T08:11:25;8.32;;;1.83;;
48795;SDS011;34607;48.520;-1.330;2023-03-26T08:14:07;8.35;;;1.95;;
48795;SDS011;34607;48.520;-1.330;2023-03-26T08:16:53;5.50;;;1.83;;
48795;SDS011;34607;48.520;-1.330;2023-03-26T08:19:30;4.18;;;1.27;;
48795;SDS011;34607;48.520;-1.330;2023-03-26T08:22:09;5.45;;;1.30;;
48795;SDS011;34607;48.520;-1.330;2023-03-26T08:24:42;4.38;;;1.30;;
48795;SDS011;34607;48.520;-1.330;2023-03-26T08:27:19;5.60;;;1.33;;
48795;SDS011;34607;48.520;-1.330;2023-03-26T08:29:53;5.63;;;1.20;;
48795;SDS011;34607;48.520;-1.330;2023-03-26T08:32:26;6.43;;;1.15;;
48795;SDS011;34607;48.520;-1.330;2023-03-26T08:34:54;7.22;;;2.10;;
48795;SDS011;34607;48.520;-1.330;2023-03-26T08:37:26;6.82;;;1.20;;
48795;SDS011;34607;48.520;-1.330;2023-03-26T08:39:53;4.05;;;1.23;;
48795;SDS011;34607;48.520;-1.330;2023-03-26T08:45:54;4.00;;;1.35;;
48795;SDS011;34607;48.520;-1.330;2023-03-26T08:51:38;6.75;;;1.33;;
48795;SDS011;34607;48.520;-1.330;2023-03-26T08:54:48;7.13;;;1.13;;
48795;SDS011;34607;48.520;-1.330;2023-03-26T08:57:44;8.13;;;1.50;;
48795;SDS011;34607;48.520;-1.330;2023-03-26T09:13:00;5.78;;;1.20;;
48795;SDS011;34607;48.520;-1.330;2023-03-26T09:19:04;7.85;;;1.40;;
48795;SDS011;34607;48.520;-1.330;2023-03-26T09:25:48;2.75;;;0.50;;
48795;SDS011;34607;48.520;-1.330;2023-03-26T09:35:12;2.08;;;0.77;;
48795;SDS011;34607;48.520;-1.330;2023-03-26T09:37:52;2.40;;;1.02;;
48795;SDS011;34607;48.520;-1.330;2023-03-26T09:40:24;3.03;;;1.27;;
48795;SDS011;34607;48.520;-1.330;2023-03-26T09:43:09;1.80;;;0.73;;
48795;SDS011;34607;48.520;-1.330;2023-03-26T09:45:58;3.40;;;0.68;;
48795;SDS011;34607;48.520;-1.330;2023-03-26T09:48:44;3.95;;;1.60;;
48795;SDS011;34607;48.520;-1.330;2023-03-26T09:51:30;1.23;;;0.40;;
48795;SDS011;34607;48.520;-1.330;2023-03-26T09:54:26;0.95;;;0.50;;
48795;SDS011;34607;48.520;-1.330;2023-03-26T09:57:16;1.73;;;0.60;;
48795;SDS011;34607;48.520;-1.330;2023-03-26T09:59:55;2.42;;;0.70;;
48795;SDS011;34607;48.520;-1.330;2023-03-26T10:02:41;0.82;;;0.45;;
48795;SDS011;34607;48.520;-1.330;2023-03-26T10:05:23;2.70;;;0.73;;
48795;SDS011;34607;48.520;-1.330;2023-03-26T10:08:01;3.35;;;0.70;;
48795;SDS011;34607;48.520;-1.330;2023-03-26T10:10:40;1.63;;;0.60;;
48795;SDS011;34607;48.520;-1.330;2023-03-26T10:13:19;1.33;;;0.47;;
48795;SDS011;34607;48.520;-1.330;2023-03-26T10:15:58;2.00;;;0.93;;
48795;SDS011;34607;48.520;-1.330;2023-03-26T10:18:36;1.67;;;0.50;;
48795;SDS011;34607;48.520;-1.330;2023-03-26T10:21:18;2.05;;;0.80;;
48795;SDS011;34607;48.520;-1.330;2023-03-26T10:26:49;2.72;;;0.70;;
48795;SDS011;34607;48.520;-1.330;2023-03-26T10:29:36;4.53;;;0.63;;
48795;SDS011;34607;48.520;-1.330;2023-03-26T10:32:24;2.90;;;1.40;;
48795;SDS011;34607;48.520;-1.330;2023-03-26T10:35:01;2.40;;;0.60;;
48795;SDS011;34607;48.520;-1.330;2023-03-26T10:37:43;3.97;;;0.82;;
48795;SDS011;34607;48.520;-1.330;2023-03-26T10:40:22;1.58;;;0.60;;
48795;SDS011;34607;48.520;-1.330;2023-03-26T10:43:06;1.90;;;0.80;;
48795;SDS011;34607;48.520;-1.330;2023-03-26T10:45:52;2.17;;;0.70;;
48795;SDS011;34607;48.520;-1.330;2023-03-26T10:51:28;0.80;;;0.55;;
48795;SDS011;34607;48.520;-1.330;2023-03-26T10:54:16;0.88;;;0.47;;
48795;SDS011;34607;48.520;-1.330;2023-03-26T10:56:51;2.20;;;0.90;;
48795;SDS011;34607;48.520;-1.330;2023-03-26T10:59:21;2.50;;;0.63;;
48795;SDS011;34607;48.520;-1.330;2023-03-26T11:01:56;2.92;;;0.50;;
48795;SDS011;34607;48.520;-1.330;2023-03-26T11:04:32;2.35;;;0.50;;
48795;SDS011;34607;48.520;-1.330;2023-03-26T11:07:12;2.83;;;0.77;;
48795;SDS011;34607;48.520;-1.330;2023-03-26T11:09:49;2.30;;;0.70;;
48795;SDS011;34607;48.520;-1.330;2023-03-26T11:12:25;1.20;;;0.50;;
48795;SDS011;34607;48.520;-1.330;2023-03-26T11:15:04;1.17;;;0.70;;
48795;SDS011;34607;48.520;-1.330;2023-03-26T11:17:42;2.38;;;0.88;;
48795;SDS011;34607;48.520;-1.330;2023-03-26T11:20:18;2.22;;;0.50;;
48795;SDS011;34607;48.520;-1.330;2023-03-26T11:22:59;3.25;;;0.85;;
48795;SDS011;34607;48.520;-1.330;2023-03-26T11:25:43;1.25;;;0.70;;
48795;SDS011;34607;48.520;-1.330;2023-03-26T11:28:22;2.25;;;0.68;;
48795;SDS011;34607;48.520;-1.330;2023-03-26T11:30:59;1.52;;;0.70;;
48795;SDS011;34607;48.520;-1.330;2023-03-26T11:33:34;1.27;;;0.70;;
48795;SDS011;34607;48.520;-1.330;2023-03-26T11:36:05;1.23;;;0.63;;
48795;SDS011;34607;48.520;-1.330;2023-03-26T11:38:36;3.47;;;0.70;;
48795;SDS011;34607;48.520;-1.330;2023-03-26T11:41:12;2.83;;;1.23;;
48795;SDS011;34607;48.520;-1.330;2023-03-26T11:43:49;3.97;;;0.90;;
48795;SDS011;34607;48.520;-1.330;2023-03-26T11:46:20;3.15;;;0.70;;
48795;SDS011;34607;48.520;-1.330;2023-03-26T11:48:49;0.82;;;0.45;;
48795;SDS011;34607;48.520;-1.330;2023-03-26T11:51:22;2.38;;;0.70;;
48795;SDS011;34607;48.520;-1.330;2023-03-26T11:53:53;2.30;;;0.90;;
48795;SDS011;34607;48.520;-1.330;2023-03-26T11:56:24;4.22;;;1.00;;
48795;SDS011;34607;48.520;-1.330;2023-03-26T11:58:56;4.18;;;1.45;;
48795;SDS011;34607;48.520;-1.330;2023-03-26T12:01:27;3.25;;;1.00;;
48795;SDS011;34607;48.520;-1.330;2023-03-26T12:04:08;6.65;;;2.22;;
48795;SDS011;34607;48.520;-1.330;2023-03-26T12:06:39;5.93;;;1.00;;
48795;SDS011;34607;48.520;-1.330;2023-03-26T12:09:17;2.63;;;1.00;;
48795;SDS011;34607;48.520;-1.330;2023-03-26T12:11:49;5.05;;;1.25;;
48795;SDS011;34607;48.520;-1.330;2023-03-26T12:14:21;4.95;;;1.10;;
48795;SDS011;34607;48.520;-1.330;2023-03-26T12:16:57;4.80;;;1.23;;
48795;SDS011;34607;48.520;-1.330;2023-03-26T12:19:26;5.13;;;0.98;;
48795;SDS011;34607;48.520;-1.330;2023-03-26T12:22:01;5.13;;;1.58;;
48795;SDS011;34607;48.520;-1.330;2023-03-26T12:24:28;6.53;;;1.27;;
48795;SDS011;34607;48.520;-1.330;2023-03-26T12:26:59;4.25;;;1.05;;
48795;SDS011;34607;48.520;-1.330;2023-03-26T12:29:28;6.80;;;1.65;;
48795;SDS011;34607;48.520;-1.330;2023-03-26T12:32:03;5.05;;;1.60;;
48795;SDS011;34607;48.520;-1.330;2023-03-26T12:37:01;5.50;;;1.40;;
48795;SDS011;34607;48.520;-1.330;2023-03-26T12:39:38;5.05;;;1.38;;
48795;SDS011;34607;48.520;-1.330;2023-03-26T12:42:22;4.40;;;1.52;;
48795;SDS011;34607;48.520;-1.330;2023-03-26T12:44:51;10.20;;;1.67;;
48795;SDS011;34607;48.520;-1.330;2023-03-26T12:47:22;5.13;;;1.17;;
48795;SDS011;34607;48.520;-1.330;2023-03-26T12:49:52;2.75;;;0.90;;
48795;SDS011;34607;48.520;-1.330;2023-03-26T12:52:24;8.88;;;2.22;;
48795;SDS011;34607;48.520;-1.330;2023-03-26T12:55:05;7.00;;;1.27;;
48795;SDS011;34607;48.520;-1.330;2023-03-26T12:57:50;6.18;;;1.85;;
48795;SDS011;34607;48.520;-1.330;2023-03-26T13:00:25;3.67;;;1.48;;
48795;SDS011;34607;48.520;-1.330;2023-03-26T13:03:16;9.40;;;2.30;;
48795;SDS011;34607;48.520;-1.330;2023-03-26T13:06:03;11.23;;;1.98;;
48795;SDS011;34607;48.520;-1.330;2023-03-26T13:08:55;8.27;;;1.63;;
48795;SDS011;34607;48.520;-1.330;2023-03-26T13:11:48;6.75;;;1.48;;
48795;SDS011;34607;48.520;-1.330;2023-03-26T13:14:36;3.75;;;0.90;;
48795;SDS011;34607;48.520;-1.330;2023-03-26T13:17:20;6.82;;;1.52;;
48795;SDS011;34607;48.520;-1.330;2023-03-26T13:19:54;4.65;;;1.67;;
48795;SDS011;34607;48.520;-1.330;2023-03-26T13:22:38;5.82;;;1.27;;
48795;SDS011;34607;48.520;-1.330;2023-03-26T13:25:18;3.47;;;1.13;;
48795;SDS011;34607;48.520;-1.330;2023-03-26T13:27:52;3.92;;;1.25;;
48795;SDS011;34607;48.520;-1.330;2023-03-26T13:30:35;8.63;;;2.22;;
48795;SDS011;34607;48.520;-1.330;2023-03-26T13:33:14;5.90;;;1.58;;
48795;SDS011;34607;48.520;-1.330;2023-03-26T13:35:54;6.65;;;2.22;;
48795;SDS011;34607;48.520;-1.330;2023-03-26T13:38:28;9.37;;;1.97;;
48795;SDS011;34607;48.520;-1.330;2023-03-26T13:41:03;7.45;;;1.70;;
48795;SDS011;34607;48.520;-1.330;2023-03-26T13:43:36;12.85;;;2.10;;
48795;SDS011;34607;48.520;-1.330;2023-03-26T13:46:16;12.52;;;2.30;;
48795;SDS011;34607;48.520;-1.330;2023-03-26T13:48:53;11.05;;;2.20;;
48795;SDS011;34607;48.520;-1.330;2023-03-26T13:51:27;13.60;;;3.47;;
48795;SDS011;34607;48.520;-1.330;2023-03-26T13:53:59;9.65;;;1.73;;
48795;SDS011;34607;48.520;-1.330;2023-03-26T13:56:33;7.20;;;1.65;;
48795;SDS011;34607;48.520;-1.330;2023-03-26T13:59:05;6.22;;;2.03;;
48795;SDS011;34607;48.520;-1.330;2023-03-26T14:01:40;19.42;;;3.33;;
48795;SDS011;34607;48.520;-1.330;2023-03-26T14:04:14;7.63;;;1.92;;
48795;SDS011;34607;48.520;-1.330;2023-03-26T14:06:47;10.57;;;2.47;;
48795;SDS011;34607;48.520;-1.330;2023-03-26T14:09:23;10.38;;;1.80;;
48795;SDS011;34607;48.520;-1.330;2023-03-26T14:12:14;14.70;;;2.83;;
48795;SDS011;34607;48.520;-1.330;2023-03-26T14:14:49;15.32;;;2.58;;
48795;SDS011;34607;48.520;-1.330;2023-03-26T14:17:21;7.80;;;2.03;;
48795;SDS011;34607;48.520;-1.330;2023-03-26T14:23:29;9.23;;;2.60;;
48795;SDS011;34607;48.520;-1.330;2023-03-26T14:26:17;10.70;;;2.33;;
48795;SDS011;34607;48.520;-1.330;2023-03-26T14:32:18;9.93;;;2.65;;
48795;SDS011;34607;48.520;-1.330;2023-03-26T14:35:10;13.07;;;2.20;;
48795;SDS011;34607;48.520;-1.330;2023-03-26T14:38:12;11.32;;;2.25;;
48795;SDS011;34607;48.520;-1.330;2023-03-26T14:40:57;9.48;;;1.85;;
48795;SDS011;34607;48.520;-1.330;2023-03-26T14:43:38;14.10;;;3.55;;
48795;SDS011;34607;48.520;-1.330;2023-03-26T14:46:27;11.23;;;2.55;;
48795;SDS011;34607;48.520;-1.330;2023-03-26T14:52:12;17.08;;;2.55;;
48795;SDS011;34607;48.520;-1.330;2023-03-26T14:54:45;8.70;;;2.78;;
48795;SDS011;34607;48.520;-1.330;2023-03-26T15:07:13;11.73;;;2.92;;
48795;SDS011;34607;48.520;-1.330;2023-03-26T15:10:07;15.05;;;2.97;;
48795;SDS011;34607;48.520;-1.330;2023-03-26T15:12:43;11.23;;;2.42;;
48795;SDS011;34607;48.520;-1.330;2023-03-26T15:15:34;13.07;;;2.67;;
48795;SDS011;34607;48.520;-1.330;2023-03-26T15:28:47;13.88;;;2.75;;
48795;SDS011;34607;48.520;-1.330;2023-03-26T15:31:44;15.32;;;3.10;;
48795;SDS011;34607;48.520;-1.330;2023-03-26T15:40:56;8.43;;;2.92;;
48795;SDS011;34607;48.520;-1.330;2023-03-26T15:43:51;10.65;;;2.35;;
48795;SDS011;34607;48.520;-1.330;2023-03-26T15:46:49;6.18;;;2.10;;
48795;SDS011;34607;48.520;-1.330;2023-03-26T15:49:24;7.05;;;2.03;;
48795;SDS011;34607;48.520;-1.330;2023-03-26T15:52:03;8.20;;;2.03;;
48795;SDS011;34607;48.520;-1.330;2023-03-26T15:54:44;13.98;;;2.45;;
48795;SDS011;34607;48.520;-1.330;2023-03-26T15:57:20;10.10;;;2.22;;
48795;SDS011;34607;48.520;-1.330;2023-03-26T16:02:53;9.18;;;1.80;;
48795;SDS011;34607;48.520;-1.330;2023-03-26T16:08:39;10.48;;;2.28;;
48795;SDS011;34607;48.520;-1.330;2023-03-26T16:14:14;8.00;;;2.05;;
48795;SDS011;34607;48.520;-1.330;2023-03-26T16:16:48;9.00;;;2.17;;
48795;SDS011;34607;48.520;-1.330;2023-03-26T16:19:31;8.30;;;2.58;;
48795;SDS011;34607;48.520;-1.330;2023-03-26T16:22:06;11.15;;;2.15;;
48795;SDS011;34607;48.520;-1.330;2023-03-26T16:24:38;9.27;;;1.87;;
48795;SDS011;34607;48.520;-1.330;2023-03-26T16:32:55;12.60;;;2.03;;
48795;SDS011;34607;48.520;-1.330;2023-03-26T16:35:45;13.73;;;1.90;;
48795;SDS011;34607;48.520;-1.330;2023-03-26T16:38:48;11.63;;;2.20;;
48795;SDS011;34607;48.520;-1.330;2023-03-26T16:41:28;13.05;;;2.67;;
48795;SDS011;34607;48.520;-1.330;2023-03-26T16:44:05;8.63;;;2.00;;
48795;SDS011;34607;48.520;-1.330;2023-03-26T16:46:43;9.60;;;2.40;;
48795;SDS011;34607;48.520;-1.330;2023-03-26T16:49:24;12.15;;;3.28;;
48795;SDS011;34607;48.520;-1.330;2023-03-26T16:52:01;11.88;;;2.90;;
48795;SDS011;34607;48.520;-1.330;2023-03-26T16:54:40;15.23;;;3.53;;
48795;SDS011;34607;48.520;-1.330;2023-03-26T16:57:18;9.57;;;2.90;;
48795;SDS011;34607;48.520;-1.330;2023-03-26T17:00:02;17.13;;;8.98;;
48795;SDS011;34607;48.520;-1.330;2023-03-26T17:02:53;25.10;;;14.55;;
48795;SDS011;34607;48.520;-1.330;2023-03-26T17:05:31;32.25;;;19.40;;
48795;SDS011;34607;48.520;-1.330;2023-03-26T17:08:04;21.00;;;13.13;;
48795;SDS011;34607;48.520;-1.330;2023-03-26T17:10:43;14.32;;;4.65;;
48795;SDS011;34607;48.520;-1.330;2023-03-26T17:13:22;15.18;;;9.90;;
48795;SDS011;34607;48.520;-1.330;2023-03-26T17:15:55;16.58;;;9.45;;
48795;SDS011;34607;48.520;-1.330;2023-03-26T17:18:40;12.52;;;7.38;;
48795;SDS011;34607;48.520;-1.330;2023-03-26T17:21:12;16.65;;;10.18;;
48795;SDS011;34607;48.520;-1.330;2023-03-26T17:23:50;9.55;;;6.13;;
48795;SDS011;34607;48.520;-1.330;2023-03-26T17:26:31;5.57;;;3.15;;
48795;SDS011;34607;48.520;-1.330;2023-03-26T17:29:10;6.15;;;3.00;;
48795;SDS011;34607;48.520;-1.330;2023-03-26T17:31:48;7.90;;;5.25;;
48795;SDS011;34607;48.520;-1.330;2023-03-26T17:37:35;6.47;;;3.15;;
48795;SDS011;34607;48.520;-1.330;2023-03-26T17:43:10;7.95;;;3.30;;
48795;SDS011;34607;48.520;-1.330;2023-03-26T17:45:58;9.23;;;3.97;;
48795;SDS011;34607;48.520;-1.330;2023-03-26T17:48:25;7.15;;;3.08;;
48795;SDS011;34607;48.520;-1.330;2023-03-26T17:51:00;11.40;;;3.97;;
48795;SDS011;34607;48.520;-1.330;2023-03-26T17:53:33;10.57;;;4.63;;
48795;SDS011;34607;48.520;-1.330;2023-03-26T17:56:02;10.13;;;3.28;;
48795;SDS011;34607;48.520;-1.330;2023-03-26T17:58:33;9.30;;;3.70;;
48795;SDS011;34607;48.520;-1.330;2023-03-26T18:01:04;4.32;;;2.50;;
48795;SDS011;34607;48.520;-1.330;2023-03-26T18:03:41;7.32;;;3.30;;
48795;SDS011;34607;48.520;-1.330;2023-03-26T18:06:17;9.10;;;2.80;;
48795;SDS011;34607;48.520;-1.330;2023-03-26T18:09:04;4.47;;;1.70;;
48795;SDS011;34607;48.520;-1.330;2023-03-26T18:11:49;4.55;;;1.42;;
48795;SDS011;34607;48.520;-1.330;2023-03-26T18:17:26;3.63;;;1.35;;
48795;SDS011;34607;48.520;-1.330;2023-03-26T18:20:04;6.95;;;1.92;;
48795;SDS011;34607;48.520;-1.330;2023-03-26T18:22:34;5.88;;;1.90;;
48795;SDS011;34607;48.520;-1.330;2023-03-26T18:25:03;5.45;;;1.80;;
48795;SDS011;34607;48.520;-1.330;2023-03-26T18:27:32;5.53;;;2.00;;
48795;SDS011;34607;48.520;-1.330;2023-03-26T18:30:12;4.57;;;2.58;;
48795;SDS011;34607;48.520;-1.330;2023-03-26T18:32:46;5.72;;;2.22;;
48795;SDS011;34607;48.520;-1.330;2023-03-26T18:35:22;4.90;;;1.92;;
48795;SDS011;34607;48.520;-1.330;2023-03-26T18:37:50;4.05;;;1.83;;
48795;SDS011;34607;48.520;-1.330;2023-03-26T18:40:24;7.65;;;4.80;;
48795;SDS011;34607;48.520;-1.330;2023-03-26T18:42:55;3.75;;;2.65;;
48795;SDS011;34607;48.520;-1.330;2023-03-26T18:45:25;4.18;;;2.25;;
48795;SDS011;34607;48.520;-1.330;2023-03-26T18:47:55;3.22;;;2.17;;
48795;SDS011;34607;48.520;-1.330;2023-03-26T18:50:25;1.20;;;1.10;;
48795;SDS011;34607;48.520;-1.330;2023-03-26T18:52:54;1.55;;;1.20;;
48795;SDS011;34607;48.520;-1.330;2023-03-26T18:55:26;2.42;;;1.55;;
48795;SDS011;34607;48.520;-1.330;2023-03-26T18:57:54;2.80;;;0.95;;
48795;SDS011;34607;48.520;-1.330;2023-03-26T19:00:22;1.35;;;0.65;;
48795;SDS011;34607;48.520;-1.330;2023-03-26T19:03:03;0.60;;;0.60;;
48795;SDS011;34607;48.520;-1.330;2023-03-26T19:05:32;0.90;;;0.65;;
48795;SDS011;34607;48.520;-1.330;2023-03-26T19:08:02;0.88;;;0.60;;
48795;SDS011;34607;48.520;-1.330;2023-03-26T19:10:32;2.35;;;1.13;;
48795;SDS011;34607;48.520;-1.330;2023-03-26T19:12:59;6.90;;;1.70;;
48795;SDS011;34607;48.520;-1.330;2023-03-26T19:15:28;7.75;;;3.95;;
48795;SDS011;34607;48.520;-1.330;2023-03-26T19:17:58;6.60;;;3.65;;
48795;SDS011;34607;48.520;-1.330;2023-03-26T19:20:38;4.53;;;3.00;;
48795;SDS011;34607;48.520;-1.330;2023-03-26T19:23:08;4.45;;;3.28;;
48795;SDS011;34607;48.520;-1.330;2023-03-26T19:25:41;6.22;;;5.50;;
48795;SDS011;34607;48.520;-1.330;2023-03-26T19:28:16;7.18;;;6.20;;
48795;SDS011;34607;48.520;-1.330;2023-03-26T19:30:46;4.93;;;3.20;;
48795;SDS011;34607;48.520;-1.330;2023-03-26T19:33:17;3.65;;;2.65;;
48795;SDS011;34607;48.520;-1.330;2023-03-26T19:35:51;1.20;;;1.08;;
48795;SDS011;34607;48.520;-1.330;2023-03-26T19:38:21;2.13;;;1.60;;
48795;SDS011;34607;48.520;-1.330;2023-03-26T19:40:53;2.45;;;2.15;;
48795;SDS011;34607;48.520;-1.330;2023-03-26T19:43:21;3.90;;;3.53;;
48795;SDS011;34607;48.520;-1.330;2023-03-26T19:45:49;6.53;;;5.93;;
48795;SDS011;34607;48.520;-1.330;2023-03-26T19:48:17;3.92;;;3.53;;
48795;SDS011;34607;48.520;-1.330;2023-03-26T19:50:54;11.45;;;8.75;;
48795;SDS011;34607;48.520;-1.330;2023-03-26T19:53:29;10.38;;;7.78;;
48795;SDS011;34607;48.520;-1.330;2023-03-26T19:56:02;7.38;;;4.68;;
48795;SDS011;34607;48.520;-1.330;2023-03-26T19:58:37;5.60;;;3.13;;
48795;SDS011;34607;48.520;-1.330;2023-03-26T20:01:05;10.23;;;6.68;;
48795;SDS011;34607;48.520;-1.330;2023-03-26T20:03:36;5.13;;;4.18;;
48795;SDS011;34607;48.520;-1.330;2023-03-26T20:06:08;5.05;;;3.65;;
48795;SDS011;34607;48.520;-1.330;2023-03-26T20:08:36;8.23;;;6.65;;
48795;SDS011;34607;48.520;-1.330;2023-03-26T20:11:08;8.77;;;6.68;;
48795;SDS011;34607;48.520;-1.330;2023-03-26T20:13:39;5.55;;;4.53;;
48795;SDS011;34607;48.520;-1.330;2023-03-26T20:16:08;5.60;;;3.83;;
48795;SDS011;34607;48.520;-1.330;2023-03-26T20:18:40;3.40;;;3.05;;
48795;SDS011;34607;48.520;-1.330;2023-03-26T20:21:08;4.53;;;2.78;;
48795;SDS011;34607;48.520;-1.330;2023-03-26T20:23:36;5.55;;;3.70;;
48795;SDS011;34607;48.520;-1.330;2023-03-26T20:26:07;4.30;;;3.25;;
48795;SDS011;34607;48.520;-1.330;2023-03-26T20:28:36;3.92;;;2.72;;
48795;SDS011;34607;48.520;-1.330;2023-03-26T20:31:03;2.45;;;2.15;;
48795;SDS011;34607;48.520;-1.330;2023-03-26T20:33:32;2.25;;;1.27;;
48795;SDS011;34607;48.520;-1.330;2023-03-26T20:35:59;2.00;;;1.40;;
48795;SDS011;34607;48.520;-1.330;2023-03-26T20:38:26;2.50;;;1.63;;
48795;SDS011;34607;48.520;-1.330;2023-03-26T20:40:53;2.30;;;1.50;;
48795;SDS011;34607;48.520;-1.330;2023-03-26T20:43:22;4.18;;;2.63;;
48795;SDS011;34607;48.520;-1.330;2023-03-26T20:45:53;4.63;;;3.60;;
48795;SDS011;34607;48.520;-1.330;2023-03-26T20:48:21;3.10;;;2.60;;
48795;SDS011;34607;48.520;-1.330;2023-03-26T20:50:51;2.67;;;2.15;;
48795;SDS011;34607;48.520;-1.330;2023-03-26T20:53:18;4.85;;;2.17;;
48795;SDS011;34607;48.520;-1.330;2023-03-26T20:55:45;2.70;;;2.50;;
48795;SDS011;34607;48.520;-1.330;2023-03-26T20:58:12;8.95;;;4.28;;
48795;SDS011;34607;48.520;-1.330;2023-03-26T21:00:43;6.07;;;4.50;;
48795;SDS011;34607;48.520;-1.330;2023-03-26T21:03:11;7.85;;;4.50;;
48795;SDS011;34607;48.520;-1.330;2023-03-26T21:05:39;5.93;;;3.50;;
48795;SDS011;34607;48.520;-1.330;2023-03-26T21:08:08;5.00;;;1.92;;
48795;SDS011;34607;48.520;-1.330;2023-03-26T21:10:40;2.55;;;1.70;;
48795;SDS011;34607;48.520;-1.330;2023-03-26T21:13:09;1.55;;;1.45;;
48795;SDS011;34607;48.520;-1.330;2023-03-26T21:15:44;3.00;;;2.40;;
48795;SDS011;34607;48.520;-1.330;2023-03-26T21:18:12;2.85;;;2.20;;
48795;SDS011;34607;48.520;-1.330;2023-03-26T21:20:40;3.20;;;2.40;;
48795;SDS011;34607;48.520;-1.330;2023-03-26T21:23:11;3.15;;;2.17;;
48795;SDS011;34607;48.520;-1.330;2023-03-26T21:25:47;5.80;;;3.80;;
48795;SDS011;34607;48.520;-1.330;2023-03-26T21:28:24;7.30;;;5.97;;
48795;SDS011;34607;48.520;-1.330;2023-03-26T21:31:00;4.60;;;2.00;;
48795;SDS011;34607;48.520;-1.330;2023-03-26T21:33:28;2.47;;;1.98;;
48795;SDS011;34607;48.520;-1.330;2023-03-26T21:35:57;4.20;;;2.25;;
48795;SDS011;34607;48.520;-1.330;2023-03-26T21:38:24;5.22;;;2.60;;
48795;SDS011;34607;48.520;-1.330;2023-03-26T21:40:55;2.20;;;1.73;;
48795;SDS011;34607;48.520;-1.330;2023-03-26T21:43:26;4.75;;;2.55;;
48795;SDS011;34607;48.520;-1.330;2023-03-26T21:45:54;5.07;;;3.03;;
48795;SDS011;34607;48.520;-1.330;2023-03-26T21:48:23;5.15;;;4.07;;
48795;SDS011;34607;48.520;-1.330;2023-03-26T21:50:50;5.10;;;2.40;;
48795;SDS011;34607;48.520;-1.330;2023-03-26T21:53:18;5.78;;;3.25;;
